FAMM/MBD METAR and TAF weather

Enter ICAO airport designator
Station Type Date Time Source
FAMM METAR 2018/07/21 22:00 UTC NOAA

FAMM 212200Z AUTO 07003KT //// // ////// 06/M01 Q1032


Station Type Date Time Source
FAMM Decoded METAR 2018/07/21 22:00 UTC NOAA

Mafikeng Intl. Ad, South Africa (FAMM) 25-47S 025-32E 1300M
Jul 21, 2018 - 06:00 PM EDT / 2018.07.21 2200 UTC
Wind: from the ENE (070 degrees) at 3 MPH (3 KT):0
Temperature: 42 F (6 C)
Dew Point: 30 F (-1 C)
Relative Humidity: 60%
Pressure (altimeter): 30.47 in. Hg (1032 hPa)
ob: FAMM 212200Z AUTO 07003KT //// // ////// 06/M01 Q1032
cycle: 22

Station Type Date Time Source
FAMM TAF 2018/06/05 07:00 UTC NOAA

TAF FAMM 050600Z 0507/0518 VRB03KT CAVOK TX21/0512Z TN12/0507Z


Example: see airport list